sensor_id;sensor_type;location;lat;lon;timestamp;P1;durP1;ratioP1;P2;durP2;ratioP2
9364;SDS011;4722;49.340;9.800;2022-12-08T00:01:41;12.63;;;6.50;;
9364;SDS011;4722;49.340;9.800;2022-12-08T00:04:07;13.30;;;6.25;;
9364;SDS011;4722;49.340;9.800;2022-12-08T00:06:34;11.30;;;5.70;;
9364;SDS011;4722;49.340;9.800;2022-12-08T00:11:46;15.25;;;7.82;;
9364;SDS011;4722;49.340;9.800;2022-12-08T00:14:12;14.85;;;6.22;;
9364;SDS011;4722;49.340;9.800;2022-12-08T00:16:38;13.43;;;6.93;;
9364;SDS011;4722;49.340;9.800;2022-12-08T00:19:04;11.45;;;5.72;;
9364;SDS011;4722;49.340;9.800;2022-12-08T00:21:30;16.75;;;7.78;;
9364;SDS011;4722;49.340;9.800;2022-12-08T00:23:56;15.48;;;7.72;;
9364;SDS011;4722;49.340;9.800;2022-12-08T00:26:22;12.27;;;5.32;;
9364;SDS011;4722;49.340;9.800;2022-12-08T00:28:47;11.98;;;6.18;;
9364;SDS011;4722;49.340;9.800;2022-12-08T00:31:13;16.10;;;7.30;;
9364;SDS011;4722;49.340;9.800;2022-12-08T00:33:39;19.23;;;7.97;;
9364;SDS011;4722;49.340;9.800;2022-12-08T00:36:09;13.52;;;7.40;;
9364;SDS011;4722;49.340;9.800;2022-12-08T00:38:37;13.02;;;6.30;;
9364;SDS011;4722;49.340;9.800;2022-12-08T00:41:08;23.20;;;7.72;;
9364;SDS011;4722;49.340;9.800;2022-12-08T00:43:36;14.85;;;6.70;;
9364;SDS011;4722;49.340;9.800;2022-12-08T00:46:02;13.63;;;7.55;;
9364;SDS011;4722;49.340;9.800;2022-12-08T00:48:28;18.02;;;9.27;;
9364;SDS011;4722;49.340;9.800;2022-12-08T00:50:54;12.77;;;7.00;;
9364;SDS011;4722;49.340;9.800;2022-12-08T00:53:20;18.05;;;8.68;;
9364;SDS011;4722;49.340;9.800;2022-12-08T00:55:46;16.90;;;6.80;;
9364;SDS011;4722;49.340;9.800;2022-12-08T00:58:12;13.77;;;7.30;;
9364;SDS011;4722;49.340;9.800;2022-12-08T01:00:41;15.80;;;6.40;;
9364;SDS011;4722;49.340;9.800;2022-12-08T01:03:08;23.15;;;7.90;;
9364;SDS011;4722;49.340;9.800;2022-12-08T01:05:34;12.85;;;6.38;;
9364;SDS011;4722;49.340;9.800;2022-12-08T01:08:00;16.27;;;7.18;;
9364;SDS011;4722;49.340;9.800;2022-12-08T01:10:26;12.90;;;7.25;;
9364;SDS011;4722;49.340;9.800;2022-12-08T01:12:52;13.82;;;6.75;;
9364;SDS011;4722;49.340;9.800;2022-12-08T01:15:18;18.33;;;6.07;;
9364;SDS011;4722;49.340;9.800;2022-12-08T01:17:44;13.60;;;6.88;;
9364;SDS011;4722;49.340;9.800;2022-12-08T01:20:10;13.82;;;7.32;;
9364;SDS011;4722;49.340;9.800;2022-12-08T01:22:36;15.80;;;7.45;;
9364;SDS011;4722;49.340;9.800;2022-12-08T01:25:02;14.43;;;6.68;;
9364;SDS011;4722;49.340;9.800;2022-12-08T01:27:28;15.93;;;6.70;;
9364;SDS011;4722;49.340;9.800;2022-12-08T01:29:54;15.52;;;7.55;;
9364;SDS011;4722;49.340;9.800;2022-12-08T01:32:20;14.13;;;6.85;;
9364;SDS011;4722;49.340;9.800;2022-12-08T01:34:46;14.73;;;6.70;;
9364;SDS011;4722;49.340;9.800;2022-12-08T01:37:12;13.73;;;7.05;;
9364;SDS011;4722;49.340;9.800;2022-12-08T01:39:38;16.70;;;8.20;;
9364;SDS011;4722;49.340;9.800;2022-12-08T01:42:05;15.52;;;6.95;;
9364;SDS011;4722;49.340;9.800;2022-12-08T01:46:57;16.63;;;7.22;;
9364;SDS011;4722;49.340;9.800;2022-12-08T01:49:29;9.10;;;5.20;;
9364;SDS011;4722;49.340;9.800;2022-12-08T01:52:13;18.42;;;6.57;;
9364;SDS011;4722;49.340;9.800;2022-12-08T01:54:46;16.02;;;7.93;;
9364;SDS011;4722;49.340;9.800;2022-12-08T01:57:17;13.68;;;5.93;;
9364;SDS011;4722;49.340;9.800;2022-12-08T01:59:46;16.02;;;6.18;;
9364;SDS011;4722;49.340;9.800;2022-12-08T02:02:13;12.30;;;5.63;;
9364;SDS011;4722;49.340;9.800;2022-12-08T02:04:39;14.68;;;7.55;;
9364;SDS011;4722;49.340;9.800;2022-12-08T02:07:05;12.45;;;6.43;;
9364;SDS011;4722;49.340;9.800;2022-12-08T02:09:32;13.85;;;6.07;;
9364;SDS011;4722;49.340;9.800;2022-12-08T02:11:58;10.15;;;5.18;;
9364;SDS011;4722;49.340;9.800;2022-12-08T02:14:25;12.00;;;5.43;;
9364;SDS011;4722;49.340;9.800;2022-12-08T02:17:11;11.27;;;5.25;;
9364;SDS011;4722;49.340;9.800;2022-12-08T02:22:46;11.10;;;5.97;;
9364;SDS011;4722;49.340;9.800;2022-12-08T02:30:21;15.88;;;5.85;;
9364;SDS011;4722;49.340;9.800;2022-12-08T02:35:44;10.07;;;4.70;;
9364;SDS011;4722;49.340;9.800;2022-12-08T02:38:18;9.20;;;5.15;;
9364;SDS011;4722;49.340;9.800;2022-12-08T02:40:48;7.03;;;3.95;;
9364;SDS011;4722;49.340;9.800;2022-12-08T02:45:48;12.73;;;5.57;;
9364;SDS011;4722;49.340;9.800;2022-12-08T02:48:14;10.77;;;5.13;;
9364;SDS011;4722;49.340;9.800;2022-12-08T02:50:41;10.60;;;5.82;;
9364;SDS011;4722;49.340;9.800;2022-12-08T02:53:07;12.93;;;6.10;;
9364;SDS011;4722;49.340;9.800;2022-12-08T02:55:44;10.27;;;4.78;;
9364;SDS011;4722;49.340;9.800;2022-12-08T02:58:22;11.57;;;5.22;;
9364;SDS011;4722;49.340;9.800;2022-12-08T03:03:56;13.25;;;6.03;;
9364;SDS011;4722;49.340;9.800;2022-12-08T03:08:55;8.77;;;4.28;;
9364;SDS011;4722;49.340;9.800;2022-12-08T03:11:46;9.38;;;5.05;;
9364;SDS011;4722;49.340;9.800;2022-12-08T03:14:13;13.75;;;4.90;;
9364;SDS011;4722;49.340;9.800;2022-12-08T03:16:40;13.27;;;7.10;;
9364;SDS011;4722;49.340;9.800;2022-12-08T03:21:33;11.85;;;6.57;;
9364;SDS011;4722;49.340;9.800;2022-12-08T03:24:00;12.50;;;5.57;;
9364;SDS011;4722;49.340;9.800;2022-12-08T03:26:31;10.43;;;4.82;;
9364;SDS011;4722;49.340;9.800;2022-12-08T03:28:58;10.30;;;5.43;;
9364;SDS011;4722;49.340;9.800;2022-12-08T03:31:25;12.90;;;5.00;;
9364;SDS011;4722;49.340;9.800;2022-12-08T03:33:53;9.82;;;5.10;;
9364;SDS011;4722;49.340;9.800;2022-12-08T03:36:21;9.85;;;4.32;;
9364;SDS011;4722;49.340;9.800;2022-12-08T03:38:49;8.95;;;4.32;;
9364;SDS011;4722;49.340;9.800;2022-12-08T03:41:16;10.70;;;5.43;;
9364;SDS011;4722;49.340;9.800;2022-12-08T03:43:50;18.13;;;5.82;;
9364;SDS011;4722;49.340;9.800;2022-12-08T03:46:16;9.38;;;4.95;;
9364;SDS011;4722;49.340;9.800;2022-12-08T03:48:43;15.07;;;5.93;;
9364;SDS011;4722;49.340;9.800;2022-12-08T03:51:09;12.75;;;5.10;;
9364;SDS011;4722;49.340;9.800;2022-12-08T03:53:35;11.30;;;5.22;;
9364;SDS011;4722;49.340;9.800;2022-12-08T03:56:43;12.80;;;4.63;;
9364;SDS011;4722;49.340;9.800;2022-12-08T03:58:50;13.88;;;4.50;;
9364;SDS011;4722;49.340;9.800;2022-12-08T04:01:17;8.52;;;4.70;;
9364;SDS011;4722;49.340;9.800;2022-12-08T04:03:43;8.88;;;4.60;;
9364;SDS011;4722;49.340;9.800;2022-12-08T04:06:09;8.15;;;4.32;;
9364;SDS011;4722;49.340;9.800;2022-12-08T04:08:35;10.55;;;4.28;;
9364;SDS011;4722;49.340;9.800;2022-12-08T04:11:01;15.95;;;5.25;;
9364;SDS011;4722;49.340;9.800;2022-12-08T04:13:27;8.90;;;5.22;;
9364;SDS011;4722;49.340;9.800;2022-12-08T04:15:53;10.18;;;5.43;;
9364;SDS011;4722;49.340;9.800;2022-12-08T04:18:19;12.63;;;4.03;;
9364;SDS011;4722;49.340;9.800;2022-12-08T04:20:45;11.48;;;5.25;;
9364;SDS011;4722;49.340;9.800;2022-12-08T04:23:11;9.10;;;4.53;;
9364;SDS011;4722;49.340;9.800;2022-12-08T04:25:37;11.80;;;5.00;;
9364;SDS011;4722;49.340;9.800;2022-12-08T04:28:03;9.82;;;5.15;;
9364;SDS011;4722;49.340;9.800;2022-12-08T04:30:29;14.25;;;4.63;;
9364;SDS011;4722;49.340;9.800;2022-12-08T04:32:55;9.13;;;4.25;;
9364;SDS011;4722;49.340;9.800;2022-12-08T04:35:21;11.38;;;4.28;;
9364;SDS011;4722;49.340;9.800;2022-12-08T04:37:47;9.05;;;4.90;;
9364;SDS011;4722;49.340;9.800;2022-12-08T04:40:13;11.30;;;5.03;;
9364;SDS011;4722;49.340;9.800;2022-12-08T04:42:39;12.38;;;6.38;;
9364;SDS011;4722;49.340;9.800;2022-12-08T04:45:05;16.45;;;4.95;;
9364;SDS011;4722;49.340;9.800;2022-12-08T04:47:31;8.52;;;4.88;;
9364;SDS011;4722;49.340;9.800;2022-12-08T04:49:57;10.63;;;4.85;;
9364;SDS011;4722;49.340;9.800;2022-12-08T04:52:23;14.27;;;5.72;;
9364;SDS011;4722;49.340;9.800;2022-12-08T04:54:49;8.75;;;5.20;;
9364;SDS011;4722;49.340;9.800;2022-12-08T04:57:15;8.73;;;3.33;;
9364;SDS011;4722;49.340;9.800;2022-12-08T04:59:41;10.07;;;5.05;;
9364;SDS011;4722;49.340;9.800;2022-12-08T05:02:07;9.20;;;4.60;;
9364;SDS011;4722;49.340;9.800;2022-12-08T05:04:33;10.75;;;4.63;;
9364;SDS011;4722;49.340;9.800;2022-12-08T05:06:59;12.45;;;4.28;;
9364;SDS011;4722;49.340;9.800;2022-12-08T05:09:25;9.13;;;3.95;;
9364;SDS011;4722;49.340;9.800;2022-12-08T05:11:51;10.38;;;3.97;;
9364;SDS011;4722;49.340;9.800;2022-12-08T05:14:17;10.07;;;4.72;;
9364;SDS011;4722;49.340;9.800;2022-12-08T05:16:44;6.97;;;3.95;;
9364;SDS011;4722;49.340;9.800;2022-12-08T05:19:10;14.25;;;6.50;;
9364;SDS011;4722;49.340;9.800;2022-12-08T05:21:36;14.65;;;5.03;;
9364;SDS011;4722;49.340;9.800;2022-12-08T05:24:02;12.23;;;5.82;;
9364;SDS011;4722;49.340;9.800;2022-12-08T05:26:28;12.27;;;5.05;;
9364;SDS011;4722;49.340;9.800;2022-12-08T05:28:54;9.15;;;3.95;;
9364;SDS011;4722;49.340;9.800;2022-12-08T05:31:20;18.88;;;4.07;;
9364;SDS011;4722;49.340;9.800;2022-12-08T05:33:47;6.85;;;4.55;;
9364;SDS011;4722;49.340;9.800;2022-12-08T05:36:14;13.60;;;5.53;;
9364;SDS011;4722;49.340;9.800;2022-12-08T05:38:40;8.23;;;4.40;;
9364;SDS011;4722;49.340;9.800;2022-12-08T05:41:06;9.25;;;4.80;;
9364;SDS011;4722;49.340;9.800;2022-12-08T05:43:32;9.98;;;4.47;;
9364;SDS011;4722;49.340;9.800;2022-12-08T05:45:58;8.43;;;4.65;;
9364;SDS011;4722;49.340;9.800;2022-12-08T05:48:25;12.13;;;4.13;;
9364;SDS011;4722;49.340;9.800;2022-12-08T05:50:51;8.50;;;4.38;;
9364;SDS011;4722;49.340;9.800;2022-12-08T05:53:17;11.40;;;5.68;;
9364;SDS011;4722;49.340;9.800;2022-12-08T05:55:44;14.55;;;5.53;;
9364;SDS011;4722;49.340;9.800;2022-12-08T05:58:14;9.40;;;4.88;;
9364;SDS011;4722;49.340;9.800;2022-12-08T06:00:40;7.55;;;3.88;;
9364;SDS011;4722;49.340;9.800;2022-12-08T06:03:07;9.98;;;4.35;;
9364;SDS011;4722;49.340;9.800;2022-12-08T06:05:33;13.57;;;4.78;;
9364;SDS011;4722;49.340;9.800;2022-12-08T06:07:59;9.73;;;4.13;;
9364;SDS011;4722;49.340;9.800;2022-12-08T06:10:25;8.90;;;4.82;;
9364;SDS011;4722;49.340;9.800;2022-12-08T06:12:51;11.00;;;4.75;;
9364;SDS011;4722;49.340;9.800;2022-12-08T06:15:17;11.02;;;4.40;;
9364;SDS011;4722;49.340;9.800;2022-12-08T06:17:43;11.13;;;4.55;;
9364;SDS011;4722;49.340;9.800;2022-12-08T06:20:09;15.25;;;4.97;;
9364;SDS011;4722;49.340;9.800;2022-12-08T06:22:35;8.70;;;4.47;;
9364;SDS011;4722;49.340;9.800;2022-12-08T06:25:02;12.65;;;3.50;;
9364;SDS011;4722;49.340;9.800;2022-12-08T06:27:28;10.52;;;4.70;;
9364;SDS011;4722;49.340;9.800;2022-12-08T06:29:54;8.45;;;4.88;;
9364;SDS011;4722;49.340;9.800;2022-12-08T06:32:21;8.77;;;3.60;;
9364;SDS011;4722;49.340;9.800;2022-12-08T06:34:47;7.07;;;4.00;;
9364;SDS011;4722;49.340;9.800;2022-12-08T06:37:13;10.10;;;4.20;;
9364;SDS011;4722;49.340;9.800;2022-12-08T06:39:39;9.38;;;4.15;;
9364;SDS011;4722;49.340;9.800;2022-12-08T06:42:05;8.90;;;4.65;;
9364;SDS011;4722;49.340;9.800;2022-12-08T06:44:50;6.82;;;3.60;;
9364;SDS011;4722;49.340;9.800;2022-12-08T06:47:16;11.13;;;4.95;;
9364;SDS011;4722;49.340;9.800;2022-12-08T06:49:42;7.80;;;3.65;;
9364;SDS011;4722;49.340;9.800;2022-12-08T06:52:08;7.10;;;4.05;;
9364;SDS011;4722;49.340;9.800;2022-12-08T06:54:34;6.43;;;3.35;;
9364;SDS011;4722;49.340;9.800;2022-12-08T06:57:00;12.88;;;5.15;;
9364;SDS011;4722;49.340;9.800;2022-12-08T06:59:26;19.33;;;6.78;;
9364;SDS011;4722;49.340;9.800;2022-12-08T07:01:52;16.08;;;6.75;;
9364;SDS011;4722;49.340;9.800;2022-12-08T07:04:17;8.93;;;3.53;;
9364;SDS011;4722;49.340;9.800;2022-12-08T07:06:43;9.70;;;4.82;;
9364;SDS011;4722;49.340;9.800;2022-12-08T07:09:09;10.07;;;4.35;;
9364;SDS011;4722;49.340;9.800;2022-12-08T07:11:37;7.93;;;3.95;;
9364;SDS011;4722;49.340;9.800;2022-12-08T07:14:03;15.00;;;5.22;;
9364;SDS011;4722;49.340;9.800;2022-12-08T07:16:29;6.70;;;3.30;;
9364;SDS011;4722;49.340;9.800;2022-12-08T07:18:55;8.88;;;3.50;;
9364;SDS011;4722;49.340;9.800;2022-12-08T07:21:21;11.32;;;4.78;;
9364;SDS011;4722;49.340;9.800;2022-12-08T07:23:48;9.65;;;4.75;;
9364;SDS011;4722;49.340;9.800;2022-12-08T07:26:14;8.32;;;3.63;;
9364;SDS011;4722;49.340;9.800;2022-12-08T07:28:41;15.02;;;5.20;;
9364;SDS011;4722;49.340;9.800;2022-12-08T07:31:14;8.48;;;4.38;;
9364;SDS011;4722;49.340;9.800;2022-12-08T07:33:41;8.18;;;4.82;;
9364;SDS011;4722;49.340;9.800;2022-12-08T07:36:07;9.60;;;5.28;;
9364;SDS011;4722;49.340;9.800;2022-12-08T07:38:33;6.55;;;3.90;;
9364;SDS011;4722;49.340;9.800;2022-12-08T07:40:59;8.52;;;3.47;;
9364;SDS011;4722;49.340;9.800;2022-12-08T07:43:25;8.52;;;4.10;;
9364;SDS011;4722;49.340;9.800;2022-12-08T07:45:51;8.30;;;3.80;;
9364;SDS011;4722;49.340;9.800;2022-12-08T07:48:17;8.77;;;4.90;;
9364;SDS011;4722;49.340;9.800;2022-12-08T07:50:43;8.23;;;3.75;;
9364;SDS011;4722;49.340;9.800;2022-12-08T07:53:10;9.27;;;4.00;;
9364;SDS011;4722;49.340;9.800;2022-12-08T07:55:39;13.27;;;3.58;;
9364;SDS011;4722;49.340;9.800;2022-12-08T07:58:05;9.63;;;4.40;;
9364;SDS011;4722;49.340;9.800;2022-12-08T08:00:31;9.95;;;4.78;;
9364;SDS011;4722;49.340;9.800;2022-12-08T08:02:57;14.13;;;3.83;;
9364;SDS011;4722;49.340;9.800;2022-12-08T08:05:23;8.02;;;3.67;;
9364;SDS011;4722;49.340;9.800;2022-12-08T08:07:49;14.68;;;5.07;;
9364;SDS011;4722;49.340;9.800;2022-12-08T08:10:15;10.52;;;4.80;;
9364;SDS011;4722;49.340;9.800;2022-12-08T08:12:41;8.82;;;3.45;;
9364;SDS011;4722;49.340;9.800;2022-12-08T08:15:12;9.98;;;4.30;;
9364;SDS011;4722;49.340;9.800;2022-12-08T08:17:38;7.22;;;3.92;;
9364;SDS011;4722;49.340;9.800;2022-12-08T08:20:04;9.43;;;5.50;;
9364;SDS011;4722;49.340;9.800;2022-12-08T08:22:31;8.10;;;3.97;;
9364;SDS011;4722;49.340;9.800;2022-12-08T08:24:59;8.32;;;4.03;;
9364;SDS011;4722;49.340;9.800;2022-12-08T08:27:25;8.25;;;4.47;;
9364;SDS011;4722;49.340;9.800;2022-12-08T08:29:51;11.13;;;4.40;;
9364;SDS011;4722;49.340;9.800;2022-12-08T08:32:17;11.85;;;4.60;;
9364;SDS011;4722;49.340;9.800;2022-12-08T08:34:43;8.75;;;4.75;;
9364;SDS011;4722;49.340;9.800;2022-12-08T08:37:09;7.32;;;4.03;;
9364;SDS011;4722;49.340;9.800;2022-12-08T08:39:35;8.13;;;4.20;;
9364;SDS011;4722;49.340;9.800;2022-12-08T08:42:01;9.98;;;4.45;;
9364;SDS011;4722;49.340;9.800;2022-12-08T08:44:27;10.60;;;4.75;;
9364;SDS011;4722;49.340;9.800;2022-12-08T08:46:53;16.52;;;4.82;;
9364;SDS011;4722;49.340;9.800;2022-12-08T08:49:19;17.35;;;4.97;;
9364;SDS011;4722;49.340;9.800;2022-12-08T08:51:45;10.02;;;5.13;;
9364;SDS011;4722;49.340;9.800;2022-12-08T08:54:11;8.05;;;3.97;;
9364;SDS011;4722;49.340;9.800;2022-12-08T08:56:37;10.35;;;4.70;;
9364;SDS011;4722;49.340;9.800;2022-12-08T08:59:03;8.57;;;4.22;;
9364;SDS011;4722;49.340;9.800;2022-12-08T09:01:29;13.57;;;4.10;;
9364;SDS011;4722;49.340;9.800;2022-12-08T09:03:55;8.88;;;4.07;;
9364;SDS011;4722;49.340;9.800;2022-12-08T09:06:22;9.13;;;3.97;;
9364;SDS011;4722;49.340;9.800;2022-12-08T09:08:48;10.15;;;3.50;;
9364;SDS011;4722;49.340;9.800;2022-12-08T09:11:15;8.23;;;3.10;;
9364;SDS011;4722;49.340;9.800;2022-12-08T09:13:42;8.60;;;4.38;;
9364;SDS011;4722;49.340;9.800;2022-12-08T09:16:09;15.38;;;4.00;;
9364;SDS011;4722;49.340;9.800;2022-12-08T09:18:35;7.97;;;4.03;;
9364;SDS011;4722;49.340;9.800;2022-12-08T09:21:21;7.40;;;3.60;;
9364;SDS011;4722;49.340;9.800;2022-12-08T09:23:57;7.72;;;3.75;;
9364;SDS011;4722;49.340;9.800;2022-12-08T09:26:24;8.73;;;3.70;;
9364;SDS011;4722;49.340;9.800;2022-12-08T09:28:50;6.07;;;3.00;;
9364;SDS011;4722;49.340;9.800;2022-12-08T09:31:18;10.05;;;4.03;;
9364;SDS011;4722;49.340;9.800;2022-12-08T09:33:44;5.80;;;3.17;;
9364;SDS011;4722;49.340;9.800;2022-12-08T09:36:11;8.40;;;4.10;;
9364;SDS011;4722;49.340;9.800;2022-12-08T09:38:37;9.18;;;4.70;;
9364;SDS011;4722;49.340;9.800;2022-12-08T09:41:04;5.97;;;3.20;;
9364;SDS011;4722;49.340;9.800;2022-12-08T09:46:17;10.73;;;4.00;;
9364;SDS011;4722;49.340;9.800;2022-12-08T09:48:44;8.02;;;4.22;;
9364;SDS011;4722;49.340;9.800;2022-12-08T09:51:12;10.45;;;3.30;;
9364;SDS011;4722;49.340;9.800;2022-12-08T09:54:04;9.10;;;4.45;;
9364;SDS011;4722;49.340;9.800;2022-12-08T09:56:26;10.43;;;3.72;;
9364;SDS011;4722;49.340;9.800;2022-12-08T10:01:26;8.80;;;3.33;;
9364;SDS011;4722;49.340;9.800;2022-12-08T10:03:53;8.90;;;3.67;;
9364;SDS011;4722;49.340;9.800;2022-12-08T10:06:27;5.85;;;2.78;;
9364;SDS011;4722;49.340;9.800;2022-12-08T10:11:22;10.85;;;4.30;;
9364;SDS011;4722;49.340;9.800;2022-12-08T10:16:43;9.45;;;3.58;;
9364;SDS011;4722;49.340;9.800;2022-12-08T10:19:16;7.35;;;3.28;;
9364;SDS011;4722;49.340;9.800;2022-12-08T10:21:42;5.95;;;2.92;;
9364;SDS011;4722;49.340;9.800;2022-12-08T10:24:11;6.15;;;3.35;;
9364;SDS011;4722;49.340;9.800;2022-12-08T10:26:38;11.63;;;4.18;;
9364;SDS011;4722;49.340;9.800;2022-12-08T10:29:04;7.93;;;3.08;;
9364;SDS011;4722;49.340;9.800;2022-12-08T10:31:31;7.45;;;2.95;;
9364;SDS011;4722;49.340;9.800;2022-12-08T10:34:01;7.10;;;2.70;;
9364;SDS011;4722;49.340;9.800;2022-12-08T10:36:48;9.15;;;4.00;;
9364;SDS011;4722;49.340;9.800;2022-12-08T10:39:37;6.50;;;2.83;;
9364;SDS011;4722;49.340;9.800;2022-12-08T10:47:20;8.77;;;4.90;;
9364;SDS011;4722;49.340;9.800;2022-12-08T10:49:55;4.90;;;3.03;;
9364;SDS011;4722;49.340;9.800;2022-12-08T10:52:54;8.75;;;3.60;;
9364;SDS011;4722;49.340;9.800;2022-12-08T10:55:20;8.43;;;2.88;;
9364;SDS011;4722;49.340;9.800;2022-12-08T10:57:46;9.20;;;3.28;;
9364;SDS011;4722;49.340;9.800;2022-12-08T11:00:13;10.60;;;3.67;;
9364;SDS011;4722;49.340;9.800;2022-12-08T11:02:50;9.07;;;3.72;;
9364;SDS011;4722;49.340;9.800;2022-12-08T11:05:21;12.98;;;2.95;;
9364;SDS011;4722;49.340;9.800;2022-12-08T11:07:51;8.98;;;4.68;;
9364;SDS011;4722;49.340;9.800;2022-12-08T11:10:18;6.22;;;3.08;;
9364;SDS011;4722;49.340;9.800;2022-12-08T11:12:44;10.82;;;5.03;;
9364;SDS011;4722;49.340;9.800;2022-12-08T11:15:14;13.27;;;4.95;;
9364;SDS011;4722;49.340;9.800;2022-12-08T11:17:41;16.33;;;5.35;;
9364;SDS011;4722;49.340;9.800;2022-12-08T11:25:13;9.50;;;3.53;;
9364;SDS011;4722;49.340;9.800;2022-12-08T11:27:42;9.35;;;4.45;;
9364;SDS011;4722;49.340;9.800;2022-12-08T11:30:52;7.80;;;4.20;;
9364;SDS011;4722;49.340;9.800;2022-12-08T11:33:05;9.63;;;3.70;;
9364;SDS011;4722;49.340;9.800;2022-12-08T11:35:39;13.90;;;4.25;;
9364;SDS011;4722;49.340;9.800;2022-12-08T11:38:13;10.70;;;4.85;;
9364;SDS011;4722;49.340;9.800;2022-12-08T11:40:41;8.68;;;4.20;;
9364;SDS011;4722;49.340;9.800;2022-12-08T11:43:43;9.50;;;3.63;;
9364;SDS011;4722;49.340;9.800;2022-12-08T11:46:02;6.87;;;3.57;;
9364;SDS011;4722;49.340;9.800;2022-12-08T11:49:14;6.32;;;3.30;;
9364;SDS011;4722;49.340;9.800;2022-12-08T11:51:17;23.17;;;8.88;;
9364;SDS011;4722;49.340;9.800;2022-12-08T11:53:52;8.57;;;3.63;;
9364;SDS011;4722;49.340;9.800;2022-12-08T11:59:13;10.10;;;3.85;;
9364;SDS011;4722;49.340;9.800;2022-12-08T12:01:43;6.60;;;3.15;;
9364;SDS011;4722;49.340;9.800;2022-12-08T12:09:37;6.47;;;2.70;;
9364;SDS011;4722;49.340;9.800;2022-12-08T12:12:19;8.80;;;2.88;;
9364;SDS011;4722;49.340;9.800;2022-12-08T12:20:14;10.95;;;4.15;;
9364;SDS011;4722;49.340;9.800;2022-12-08T12:22:40;7.55;;;3.67;;
9364;SDS011;4722;49.340;9.800;2022-12-08T12:25:14;7.10;;;3.20;;
9364;SDS011;4722;49.340;9.800;2022-12-08T12:27:45;8.90;;;3.38;;
9364;SDS011;4722;49.340;9.800;2022-12-08T12:30:23;9.77;;;3.72;;
9364;SDS011;4722;49.340;9.800;2022-12-08T12:35:28;4.95;;;3.10;;
9364;SDS011;4722;49.340;9.800;2022-12-08T12:40:25;7.30;;;3.63;;
9364;SDS011;4722;49.340;9.800;2022-12-08T12:45:23;6.43;;;3.60;;
9364;SDS011;4722;49.340;9.800;2022-12-08T12:47:51;5.03;;;2.70;;
9364;SDS011;4722;49.340;9.800;2022-12-08T12:58:18;7.38;;;3.33;;
9364;SDS011;4722;49.340;9.800;2022-12-08T13:00:44;5.60;;;3.17;;
9364;SDS011;4722;49.340;9.800;2022-12-08T13:03:12;7.18;;;3.28;;
9364;SDS011;4722;49.340;9.800;2022-12-08T13:05:49;6.97;;;3.20;;
9364;SDS011;4722;49.340;9.800;2022-12-08T13:08:22;9.10;;;3.15;;
9364;SDS011;4722;49.340;9.800;2022-12-08T13:13:22;15.48;;;3.40;;
9364;SDS011;4722;49.340;9.800;2022-12-08T13:15:49;6.55;;;3.47;;
9364;SDS011;4722;49.340;9.800;2022-12-08T13:18:27;5.53;;;2.67;;
9364;SDS011;4722;49.340;9.800;2022-12-08T13:21:04;9.77;;;3.30;;
9364;SDS011;4722;49.340;9.800;2022-12-08T13:42:45;5.80;;;3.35;;
9364;SDS011;4722;49.340;9.800;2022-12-08T13:45:14;5.88;;;3.22;;
9364;SDS011;4722;49.340;9.800;2022-12-08T13:52:37;8.32;;;3.80;;
9364;SDS011;4722;49.340;9.800;2022-12-08T13:55:12;6.03;;;2.95;;
9364;SDS011;4722;49.340;9.800;2022-12-08T13:57:39;5.07;;;2.97;;
9364;SDS011;4722;49.340;9.800;2022-12-08T14:00:11;7.28;;;3.30;;
9364;SDS011;4722;49.340;9.800;2022-12-08T14:02:40;5.60;;;3.13;;
9364;SDS011;4722;49.340;9.800;2022-12-08T14:05:09;5.50;;;2.83;;
9364;SDS011;4722;49.340;9.800;2022-12-08T14:07:35;4.30;;;2.80;;
9364;SDS011;4722;49.340;9.800;2022-12-08T14:10:05;5.28;;;2.92;;
9364;SDS011;4722;49.340;9.800;2022-12-08T14:12:32;7.03;;;3.42;;
9364;SDS011;4722;49.340;9.800;2022-12-08T14:14:59;10.50;;;2.95;;
9364;SDS011;4722;49.340;9.800;2022-12-08T14:17:25;5.78;;;3.30;;
9364;SDS011;4722;49.340;9.800;2022-12-08T14:19:56;6.05;;;2.97;;
9364;SDS011;4722;49.340;9.800;2022-12-08T14:22:22;7.95;;;3.63;;
9364;SDS011;4722;49.340;9.800;2022-12-08T14:24:52;6.35;;;2.47;;
9364;SDS011;4722;49.340;9.800;2022-12-08T14:27:22;9.70;;;3.83;;
9364;SDS011;4722;49.340;9.800;2022-12-08T14:29:49;5.45;;;3.20;;
9364;SDS011;4722;49.340;9.800;2022-12-08T14:37:37;5.00;;;2.85;;
9364;SDS011;4722;49.340;9.800;2022-12-08T14:40:05;6.70;;;2.85;;
9364;SDS011;4722;49.340;9.800;2022-12-08T14:42:35;5.28;;;2.90;;
9364;SDS011;4722;49.340;9.800;2022-12-08T14:45:08;5.93;;;3.05;;
9364;SDS011;4722;49.340;9.800;2022-12-08T14:47:36;4.95;;;2.35;;
9364;SDS011;4722;49.340;9.800;2022-12-08T14:50:03;5.70;;;2.75;;
9364;SDS011;4722;49.340;9.800;2022-12-08T14:52:30;4.65;;;2.75;;
9364;SDS011;4722;49.340;9.800;2022-12-08T14:54:56;4.63;;;2.65;;
9364;SDS011;4722;49.340;9.800;2022-12-08T14:57:22;15.68;;;3.97;;
9364;SDS011;4722;49.340;9.800;2022-12-08T14:59:52;7.25;;;3.72;;
9364;SDS011;4722;49.340;9.800;2022-12-08T15:04:47;5.15;;;2.08;;
9364;SDS011;4722;49.340;9.800;2022-12-08T15:09:41;4.18;;;2.25;;
9364;SDS011;4722;49.340;9.800;2022-12-08T15:15:10;4.57;;;2.30;;
9364;SDS011;4722;49.340;9.800;2022-12-08T15:20:05;6.15;;;2.70;;
9364;SDS011;4722;49.340;9.800;2022-12-08T15:22:32;6.03;;;2.08;;
9364;SDS011;4722;49.340;9.800;2022-12-08T15:24:58;5.78;;;3.00;;
9364;SDS011;4722;49.340;9.800;2022-12-08T15:27:24;4.75;;;1.98;;
9364;SDS011;4722;49.340;9.800;2022-12-08T15:29:50;3.85;;;2.33;;
9364;SDS011;4722;49.340;9.800;2022-12-08T15:32:18;6.40;;;3.53;;
9364;SDS011;4722;49.340;9.800;2022-12-08T15:34:44;19.80;;;6.88;;
9364;SDS011;4722;49.340;9.800;2022-12-08T15:37:20;7.75;;;3.97;;
9364;SDS011;4722;49.340;9.800;2022-12-08T15:39:47;9.50;;;4.80;;
9364;SDS011;4722;49.340;9.800;2022-12-08T15:42:13;10.65;;;4.38;;
9364;SDS011;4722;49.340;9.800;2022-12-08T15:44:40;7.22;;;4.30;;
9364;SDS011;4722;49.340;9.800;2022-12-08T15:47:09;9.10;;;3.42;;
9364;SDS011;4722;49.340;9.800;2022-12-08T15:52:08;10.23;;;3.60;;
9364;SDS011;4722;49.340;9.800;2022-12-08T15:54:37;10.48;;;4.30;;
9364;SDS011;4722;49.340;9.800;2022-12-08T15:57:03;7.25;;;2.65;;
9364;SDS011;4722;49.340;9.800;2022-12-08T15:59:30;6.60;;;3.47;;
9364;SDS011;4722;49.340;9.800;2022-12-08T16:01:56;5.38;;;2.30;;
9364;SDS011;4722;49.340;9.800;2022-12-08T16:04:22;7.55;;;3.65;;
9364;SDS011;4722;49.340;9.800;2022-12-08T16:06:52;12.73;;;5.38;;
9364;SDS011;4722;49.340;9.800;2022-12-08T16:09:36;8.98;;;4.15;;
9364;SDS011;4722;49.340;9.800;2022-12-08T16:12:04;9.98;;;4.10;;
9364;SDS011;4722;49.340;9.800;2022-12-08T16:14:48;7.30;;;3.75;;
9364;SDS011;4722;49.340;9.800;2022-12-08T16:17:15;7.43;;;3.65;;
9364;SDS011;4722;49.340;9.800;2022-12-08T16:19:41;6.00;;;2.50;;
9364;SDS011;4722;49.340;9.800;2022-12-08T16:22:15;6.43;;;2.75;;
9364;SDS011;4722;49.340;9.800;2022-12-08T16:24:42;6.20;;;2.95;;
9364;SDS011;4722;49.340;9.800;2022-12-08T16:27:11;8.50;;;3.90;;
9364;SDS011;4722;49.340;9.800;2022-12-08T16:29:40;11.32;;;5.78;;
9364;SDS011;4722;49.340;9.800;2022-12-08T16:32:10;10.70;;;4.07;;
9364;SDS011;4722;49.340;9.800;2022-12-08T16:34:36;8.00;;;4.00;;
9364;SDS011;4722;49.340;9.800;2022-12-08T16:37:02;6.00;;;3.75;;
9364;SDS011;4722;49.340;9.800;2022-12-08T16:39:28;8.07;;;3.85;;
9364;SDS011;4722;49.340;9.800;2022-12-08T16:41:54;8.27;;;3.67;;
9364;SDS011;4722;49.340;9.800;2022-12-08T16:44:39;8.13;;;3.58;;
9364;SDS011;4722;49.340;9.800;2022-12-08T16:47:09;7.40;;;3.70;;
9364;SDS011;4722;49.340;9.800;2022-12-08T16:49:38;6.72;;;2.97;;
9364;SDS011;4722;49.340;9.800;2022-12-08T16:52:04;4.50;;;3.10;;
9364;SDS011;4722;49.340;9.800;2022-12-08T16:54:30;8.15;;;4.05;;
9364;SDS011;4722;49.340;9.800;2022-12-08T16:56:56;5.93;;;3.33;;
9364;SDS011;4722;49.340;9.800;2022-12-08T16:59:22;9.88;;;3.88;;
9364;SDS011;4722;49.340;9.800;2022-12-08T17:01:48;6.10;;;3.67;;
9364;SDS011;4722;49.340;9.800;2022-12-08T17:04:14;8.73;;;4.05;;
9364;SDS011;4722;49.340;9.800;2022-12-08T17:06:40;7.53;;;3.22;;
9364;SDS011;4722;49.340;9.800;2022-12-08T17:09:06;5.47;;;3.08;;
9364;SDS011;4722;49.340;9.800;2022-12-08T17:11:32;7.40;;;3.00;;
9364;SDS011;4722;49.340;9.800;2022-12-08T17:13:58;10.88;;;3.20;;
9364;SDS011;4722;49.340;9.800;2022-12-08T17:16:25;10.63;;;3.78;;
9364;SDS011;4722;49.340;9.800;2022-12-08T17:18:51;9.05;;;3.70;;